createdAt,value
2022-10-21T00:02:27.809Z,100391.22
2022-10-21T00:05:15.244Z,100371.50
2022-10-21T00:08:02.094Z,100378.69
2022-10-21T00:10:53.889Z,100388.53
2022-10-21T00:13:41.466Z,100383.03
2022-10-21T00:16:28.954Z,100367.69
2022-10-21T00:19:15.898Z,100355.00
2022-10-21T00:22:03.222Z,100345.84
2022-10-21T00:24:49.901Z,100345.75
2022-10-21T00:27:39.268Z,100339.41
2022-10-21T00:30:26.386Z,100345.47
2022-10-21T00:33:14.104Z,100351.81
2022-10-21T00:36:02.951Z,100347.31
2022-10-21T00:38:50.056Z,100339.97
2022-10-21T00:41:37.089Z,100331.22
2022-10-21T00:44:27.878Z,100325.03
2022-10-21T00:47:18.906Z,100297.28
2022-10-21T00:50:06.601Z,100303.84
2022-10-21T00:52:54.734Z,100294.87
2022-10-21T00:55:46.761Z,100292.19
2022-10-21T00:58:35.725Z,100297.53
2022-10-21T01:01:24.601Z,100293.16
2022-10-21T01:04:11.257Z,100297.53
2022-10-21T01:06:58.778Z,100285.00
2022-10-21T01:09:45.585Z,100292.06
2022-10-21T01:12:39.424Z,100283.88
2022-10-21T01:15:32.558Z,100273.16
2022-10-21T01:18:31.879Z,100255.28
2022-10-21T01:21:31.286Z,100251.75
2022-10-21T01:24:48.893Z,100254.56
2022-10-21T01:27:48.880Z,100253.44
2022-10-21T01:30:43.690Z,100249.59
2022-10-21T01:33:53.104Z,100247.91
2022-10-21T01:36:45.124Z,100246.66
2022-10-21T01:39:40.002Z,100244.53
2022-10-21T01:42:33.785Z,100253.25
2022-10-21T01:45:26.723Z,100245.22
2022-10-21T01:48:19.813Z,100246.34
2022-10-21T01:51:08.640Z,100239.31
2022-10-21T01:54:01.355Z,100231.28
2022-10-21T01:56:49.903Z,100227.75
2022-10-21T01:59:39.991Z,100228.84
2022-10-21T02:02:31.510Z,100227.16
2022-10-21T02:05:22.889Z,100220.97
2022-10-21T02:08:10.307Z,100218.41
2022-10-21T02:11:04.275Z,100226.59
2022-10-21T02:13:57.641Z,100211.66
2022-10-21T02:16:46.480Z,100211.66
2022-10-21T02:19:34.020Z,100216.16
2022-10-21T02:22:23.594Z,100220.53
2022-10-21T02:25:14.386Z,100223.22
2022-10-21T02:28:01.788Z,100225.88
2022-10-21T02:30:57.499Z,100221.25
2022-10-21T02:33:52.795Z,100226.31
2022-10-21T02:36:50.861Z,100214.50
2022-10-21T02:39:43.287Z,100218.88
2022-10-21T02:42:34.975Z,100195.63
2022-10-21T02:45:23.579Z,100204.50
2022-10-21T02:48:10.554Z,100205.22
2022-10-21T02:50:57.902Z,100197.72
2022-10-21T02:53:44.781Z,100199.44
2022-10-21T02:56:32.921Z,100192.97
2022-10-21T02:59:19.793Z,100185.50
2022-10-21T03:02:06.615Z,100185.22
2022-10-21T03:04:53.536Z,100195.69
2022-10-21T03:07:40.593Z,100187.34
2022-10-21T03:10:27.549Z,100188.06
2022-10-21T03:13:15.787Z,100187.78
2022-10-21T03:16:02.601Z,100176.09
2022-10-21T03:18:50.022Z,100164.09
2022-10-21T03:21:36.737Z,100169.31
2022-10-21T03:24:28.919Z,100170.03
2022-10-21T03:27:16.109Z,100171.59
2022-10-21T03:30:05.831Z,100169.75
2022-10-21T03:32:52.922Z,100174.53
2022-10-21T03:35:40.161Z,100169.19
2022-10-21T03:38:27.055Z,100174.28
2022-10-21T03:41:14.369Z,100166.25
2022-10-21T03:44:01.205Z,100163.28
2022-10-21T03:46:50.450Z,100173.56
2022-10-21T03:49:37.409Z,100168.03
2022-10-21T03:52:24.584Z,100164.97
2022-10-21T03:55:11.688Z,100165.50
2022-10-21T03:57:59.180Z,100156.38
2022-10-21T04:00:45.871Z,100151.72
2022-10-21T04:03:34.558Z,100144.38
2022-10-21T04:06:21.780Z,100150.44
2022-10-21T04:09:09.159Z,100136.03
2022-10-21T04:11:55.952Z,100133.34
2022-10-21T04:14:43.394Z,100117.84
2022-10-21T04:17:30.485Z,100112.50
2022-10-21T04:20:19.368Z,100109.81
2022-10-21T04:23:05.838Z,100115.16
2022-10-21T04:25:52.866Z,100106.28
2022-10-21T04:28:40.052Z,100101.78
2022-10-21T04:31:31.279Z,100111.66
2022-10-21T04:34:19.100Z,100117.00
2022-10-21T04:37:07.658Z,100110.78
2022-10-21T04:39:57.203Z,100103.72
2022-10-21T04:42:48.531Z,100096.41
2022-10-21T04:45:35.331Z,100098.09
2022-10-21T04:48:23.166Z,100088.06
2022-10-21T04:51:10.375Z,100072.00
2022-10-21T04:53:59.021Z,100078.19
2022-10-21T04:56:45.699Z,100070.16
2022-10-21T04:59:32.499Z,100074.37
2022-10-21T05:02:21.719Z,100076.22
2022-10-21T05:05:11.754Z,100069.84
2022-10-21T05:07:58.874Z,100071.31
2022-10-21T05:10:47.531Z,100066.78
2022-10-21T05:13:34.642Z,100045.34
2022-10-21T05:16:22.036Z,100054.22
2022-10-21T05:19:08.941Z,100046.03
2022-10-21T05:21:56.267Z,100043.34
2022-10-21T05:24:43.459Z,100046.03
2022-10-21T05:27:32.038Z,100050.25
2022-10-21T05:30:18.910Z,100049.25
2022-10-21T05:33:07.249Z,100049.41
2022-10-21T05:35:58.959Z,100052.09
2022-10-21T05:38:46.077Z,100049.41
2022-10-21T05:41:34.313Z,100059.12
2022-10-21T05:44:23.493Z,100050.09
2022-10-21T05:47:10.686Z,100049.25
2022-10-21T05:49:57.954Z,100055.75
2022-10-21T05:52:44.624Z,100044.19
2022-10-21T05:55:32.450Z,100057.75
2022-10-21T05:58:19.262Z,100042.50
2022-10-21T06:01:08.044Z,100038.84
2022-10-21T06:03:55.014Z,100032.94
2022-10-21T06:06:41.825Z,100038.97
2022-10-21T06:09:29.254Z,100042.50
2022-10-21T06:12:16.036Z,100032.31
2022-10-21T06:15:03.430Z,100035.69
2022-10-21T06:17:52.610Z,100037.41
2022-10-21T06:20:40.124Z,100033.59
2022-10-21T06:23:27.029Z,100038.50
2022-10-21T06:26:15.463Z,100043.59
2022-10-21T06:29:02.377Z,100045.97
2022-10-21T06:31:49.785Z,100045.81
2022-10-21T06:34:37.945Z,100051.72
2022-10-21T06:37:25.456Z,100044.78
2022-10-21T06:40:13.191Z,100057.19
2022-10-21T06:43:00.374Z,100055.62
2022-10-21T06:45:47.035Z,100051.63
2022-10-21T06:48:35.048Z,100053.75
2022-10-21T06:51:24.385Z,100053.44
2022-10-21T06:54:11.595Z,100050.47
2022-10-21T06:56:58.490Z,100042.97
2022-10-21T06:59:45.417Z,100048.84
2022-10-21T07:02:32.220Z,100059.59
2022-10-21T07:05:20.010Z,100056.91
2022-10-21T07:08:10.606Z,100063.44
2022-10-21T07:10:59.985Z,100064.22
2022-10-21T07:13:47.074Z,100065.06
2022-10-21T07:16:35.855Z,100060.09
2022-10-21T07:19:22.785Z,100060.47
2022-10-21T07:22:10.249Z,100052.25
2022-10-21T07:24:58.166Z,100059.53
2022-10-21T07:27:48.149Z,100053.25
2022-10-21T07:30:40.791Z,100066.78
2022-10-21T07:33:28.287Z,100060.09
2022-10-21T07:36:18.873Z,100062.47
2022-10-21T07:39:10.261Z,100068.53
2022-10-21T07:41:59.163Z,100065.53
2022-10-21T07:44:46.377Z,100066.22
2022-10-21T07:47:32.899Z,100063.38
2022-10-21T07:50:20.604Z,100078.50
2022-10-21T07:53:12.489Z,100079.25
2022-10-21T07:56:05.499Z,100060.47
2022-10-21T07:58:54.059Z,100065.84
2022-10-21T08:01:44.340Z,100055.09
2022-10-21T08:04:33.370Z,100042.72
2022-10-21T08:07:19.842Z,100035.66
2022-10-21T08:10:07.589Z,100034.13
2022-10-21T08:12:54.128Z,100026.06
2022-10-21T08:15:44.171Z,100027.81
2022-10-21T08:18:31.077Z,100032.66
2022-10-21T08:21:18.807Z,100019.81
2022-10-21T08:24:06.115Z,100019.59
2022-10-21T08:26:53.019Z,100031.94
2022-10-21T08:29:40.275Z,100032.63
2022-10-21T08:32:29.301Z,100017.72
2022-10-21T08:35:16.406Z,100028.41
2022-10-21T08:38:03.729Z,100035.88
2022-10-21T08:40:53.505Z,100034.22
2022-10-21T08:43:44.662Z,100048.19
2022-10-21T08:46:36.684Z,100062.03
2022-10-21T08:49:30.896Z,100055.16
2022-10-21T08:52:21.887Z,100065.28
2022-10-21T08:55:16.066Z,100060.78
2022-10-21T08:58:05.489Z,100059.84
2022-10-21T09:00:57.453Z,100046.38
2022-10-21T09:03:54.267Z,100044.06
2022-10-21T09:06:52.954Z,100040.37
2022-10-21T09:09:45.060Z,100038.38
2022-10-21T09:12:39.692Z,100042.91
2022-10-21T09:15:37.839Z,100041.06
2022-10-21T09:18:38.309Z,100034.81
2022-10-21T09:21:39.750Z,100037.03
2022-10-21T09:24:35.282Z,100041.25
2022-10-21T09:27:31.954Z,100041.59
2022-10-21T09:30:30.109Z,100035.34
2022-10-21T09:33:20.782Z,100029.44
2022-10-21T09:36:12.379Z,100028.78
2022-10-21T09:39:03.391Z,100030.47
2022-10-21T09:41:59.318Z,100014.78
2022-10-21T09:44:48.497Z,100015.25
2022-10-21T09:47:35.271Z,100011.88
2022-10-21T09:50:22.155Z,100008.16
2022-10-21T09:53:16.296Z,100012.81
2022-10-21T09:56:07.537Z,100012.81
2022-10-21T09:59:07.584Z,100010.84
2022-10-21T10:01:56.584Z,100012.72
2022-10-21T10:04:43.509Z,100006.00
2022-10-21T10:07:35.323Z,100008.88
2022-10-21T10:10:31.924Z,100008.25
2022-10-21T10:13:20.462Z,100003.47
2022-10-21T10:16:26.210Z,100016.78
2022-10-21T10:19:17.866Z,100018.31
2022-10-21T10:22:10.814Z,100011.97
2022-10-21T10:25:08.816Z,100011.59
2022-10-21T10:27:59.366Z,100014.13
2022-10-21T10:30:49.422Z,100007.69
2022-10-21T10:33:38.034Z,100012.41
2022-10-21T10:36:29.848Z,100016.09
2022-10-21T10:39:22.841Z,100011.31
2022-10-21T10:42:10.143Z,100013.47
2022-10-21T10:45:00.444Z,100019.91
2022-10-21T10:47:50.670Z,100022.75
2022-10-21T10:50:47.970Z,100019.87
2022-10-21T10:53:36.915Z,100008.53
2022-10-21T10:56:30.404Z,100017.13
2022-10-21T10:59:26.102Z,100006.75
2022-10-21T11:02:24.502Z,99996.88
2022-10-21T11:05:24.570Z,99989.66
2022-10-21T11:08:16.465Z,99980.75
2022-10-21T11:11:07.326Z,99984.41
2022-10-21T11:13:54.987Z,99980.63
2022-10-21T11:17:00.610Z,99979.16
2022-10-21T11:19:56.492Z,99971.53
2022-10-21T11:22:51.591Z,99977.34
2022-10-21T11:25:44.533Z,99966.94
2022-10-21T11:28:35.095Z,99975.47
2022-10-21T11:31:37.364Z,99977.50
2022-10-21T11:34:41.478Z,99971.50
2022-10-21T11:37:44.356Z,99967.59
2022-10-21T11:40:39.002Z,99963.00
2022-10-21T11:43:40.308Z,99973.00
2022-10-21T11:46:38.676Z,99965.44
2022-10-21T11:49:42.774Z,99956.88
2022-10-21T11:52:42.542Z,99958.25
2022-10-21T11:55:38.803Z,99949.88
2022-10-21T11:58:39.371Z,99942.66
2022-10-21T12:01:42.031Z,99952.38
2022-10-21T12:04:42.061Z,99946.25
2022-10-21T12:07:45.927Z,99947.63
2022-10-21T12:10:37.233Z,99948.56
2022-10-21T12:13:29.104Z,99952.78
2022-10-21T12:16:20.772Z,99961.19
2022-10-21T12:19:12.459Z,99959.03
2022-10-21T12:21:59.855Z,99961.25
2022-10-21T12:24:54.093Z,99960.41
2022-10-21T12:27:46.612Z,99954.00
2022-10-21T12:30:38.993Z,99955.19
2022-10-21T12:33:36.906Z,99960.41
2022-10-21T12:36:40.618Z,99962.78
2022-10-21T12:39:50.370Z,99958.41
2022-10-21T12:42:37.378Z,99959.78
2022-10-21T12:45:28.024Z,99962.41
2022-10-21T12:48:33.138Z,99952.78
2022-10-21T12:51:23.526Z,99955.81
2022-10-21T12:54:17.799Z,99954.22
2022-10-21T12:57:08.064Z,99968.84
2022-10-21T13:00:16.710Z,99969.47
2022-10-21T13:03:06.464Z,99966.38
2022-10-21T13:06:04.646Z,99955.31
2022-10-21T13:08:56.327Z,99953.53
2022-10-21T13:11:43.138Z,99957.13
2022-10-21T13:14:39.770Z,99957.81
2022-10-21T13:17:50.518Z,99954.31
2022-10-21T13:20:49.143Z,99949.13
2022-10-21T13:23:44.304Z,99949.88
2022-10-21T13:26:31.552Z,99939.78
2022-10-21T13:29:41.534Z,99942.19
2022-10-21T13:32:31.266Z,99938.63
2022-10-21T13:35:32.845Z,99935.78
2022-10-21T13:38:23.229Z,99929.56
2022-10-21T13:41:23.651Z,99927.03
2022-10-21T13:44:27.531Z,99934.13
2022-10-21T13:47:30.238Z,99936.44
2022-10-21T13:50:21.170Z,99933.94
2022-10-21T13:53:23.417Z,99932.44
2022-10-21T13:56:22.136Z,99931.38
2022-10-21T13:59:22.573Z,99930.00
2022-10-21T14:02:24.874Z,99930.47
2022-10-21T14:05:28.394Z,99928.38
2022-10-21T14:08:26.582Z,99932.69
2022-10-21T14:11:18.678Z,99942.81
2022-10-21T14:14:11.978Z,99932.13
2022-10-21T14:17:01.287Z,99936.28
2022-10-21T14:19:52.322Z,99931.66
2022-10-21T14:22:40.174Z,99930.72
2022-10-21T14:25:27.861Z,99926.84
2022-10-21T14:28:15.057Z,99927.50
2022-10-21T14:33:55.389Z,99923.97
2022-10-21T14:37:09.245Z,99935.09
2022-10-21T14:40:11.005Z,99933.34
2022-10-21T14:42:59.642Z,99928.38
2022-10-21T14:45:49.213Z,99922.34
2022-10-21T14:48:39.679Z,99926.59
2022-10-21T14:51:27.835Z,99932.22
2022-10-21T14:54:27.110Z,99934.66
2022-10-21T14:57:35.211Z,99922.88
2022-10-21T15:00:29.044Z,99933.53
2022-10-21T15:03:38.702Z,99926.16
2022-10-21T15:06:28.734Z,99926.31
2022-10-21T15:09:23.166Z,99917.25
2022-10-21T15:12:19.803Z,99918.63
2022-10-21T15:15:43.415Z,99918.63
2022-10-21T15:18:32.807Z,99917.31
2022-10-21T15:21:37.497Z,99925.81
2022-10-21T15:24:29.301Z,99928.69
2022-10-21T15:27:19.301Z,99932.87
2022-10-21T15:30:15.069Z,99934.25
2022-10-21T15:33:02.103Z,99935.78
2022-10-21T15:36:00.984Z,99942.56
2022-10-21T15:38:49.628Z,99942.72
2022-10-21T15:41:36.263Z,99941.06
2022-10-21T15:44:27.455Z,99934.31
2022-10-21T15:47:14.544Z,99936.72
2022-10-21T15:50:01.498Z,99934.53
2022-10-21T15:52:48.528Z,99935.91
2022-10-21T15:55:38.307Z,99934.72
2022-10-21T15:58:25.270Z,99939.63
2022-10-21T16:01:13.816Z,99940.13
2022-10-21T16:04:02.734Z,99931.56
2022-10-21T16:06:51.492Z,99934.41
2022-10-21T16:09:38.734Z,99934.78
2022-10-21T16:12:27.345Z,99933.09
2022-10-21T16:15:15.392Z,99931.06
2022-10-21T16:18:02.460Z,99936.62
2022-10-21T16:20:49.201Z,99940.50
2022-10-21T16:23:35.916Z,99930.69
2022-10-21T16:26:25.866Z,99925.66
2022-10-21T16:32:11.915Z,99938.63
2022-10-21T16:34:58.762Z,99946.91
2022-10-21T16:37:46.214Z,99952.78
2022-10-21T16:40:35.881Z,99958.34
2022-10-21T16:43:24.081Z,99956.16
2022-10-21T16:46:24.163Z,99952.94
2022-10-21T16:49:14.710Z,99954.97
2022-10-21T16:52:02.303Z,99950.78
2022-10-21T16:54:50.335Z,99946.88
2022-10-21T16:57:37.574Z,99939.81
2022-10-21T17:00:24.775Z,99951.25
2022-10-21T17:03:13.214Z,99944.19
2022-10-21T17:06:00.725Z,99946.06
2022-10-21T17:08:47.878Z,99952.28
2022-10-21T17:11:37.315Z,99951.78
2022-10-21T17:14:24.340Z,99967.25
2022-10-21T17:17:11.829Z,99958.00
2022-10-21T17:20:00.103Z,99981.75
2022-10-21T17:22:47.599Z,99969.59
2022-10-21T17:25:34.596Z,99979.72
2022-10-21T17:28:22.221Z,99977.84
2022-10-21T17:31:13.117Z,99980.06
2022-10-21T17:34:06.286Z,99967.91
2022-10-21T17:36:55.221Z,99967.75
2022-10-21T17:39:46.832Z,99972.44
2022-10-21T17:42:33.851Z,99976.47
2022-10-21T17:45:22.699Z,99980.00
2022-10-21T17:48:10.014Z,99980.19
2022-10-21T17:50:59.689Z,99977.50
2022-10-21T17:53:49.459Z,99988.09
2022-10-21T17:56:36.458Z,99988.09
2022-10-21T17:59:23.488Z,99988.94
2022-10-21T18:02:11.026Z,99986.25
2022-10-21T18:04:58.242Z,99987.25
2022-10-21T18:07:45.113Z,99989.28
2022-10-21T18:10:33.865Z,99993.28
2022-10-21T18:13:20.656Z,99990.56
2022-10-21T18:16:10.235Z,99992.53
2022-10-21T18:19:01.732Z,99987.84
2022-10-21T18:21:50.688Z,99997.22
2022-10-21T18:24:37.919Z,99994.69
2022-10-21T18:27:26.372Z,99990.66
2022-10-21T18:30:13.664Z,99994.84
2022-10-21T18:33:00.881Z,99987.78
2022-10-21T18:35:47.703Z,99981.03
2022-10-21T18:38:35.013Z,99984.03
2022-10-21T18:41:22.038Z,99982.69
2022-10-21T18:44:13.738Z,99984.88
2022-10-21T18:47:00.233Z,99979.28
2022-10-21T18:49:47.549Z,99977.75
2022-10-21T18:52:34.261Z,99986.00
2022-10-21T18:55:21.871Z,99994.06
2022-10-21T18:58:08.718Z,99994.75
2022-10-21T19:00:57.372Z,99986.84
2022-10-21T19:03:44.628Z,99995.03
2022-10-21T19:06:35.944Z,99995.59
2022-10-21T19:09:25.716Z,100004.81
2022-10-21T19:12:16.372Z,100005.78
2022-10-21T19:15:06.397Z,100007.28
2022-10-21T19:17:55.024Z,99996.38
2022-10-21T19:20:41.732Z,100002.09
2022-10-21T19:23:31.792Z,100006.91
2022-10-21T19:26:22.459Z,100011.09
2022-10-21T19:29:13.313Z,100006.84
2022-10-21T19:32:00.305Z,100015.12
2022-10-21T19:34:48.743Z,100014.81
2022-10-21T19:37:35.663Z,100015.66
2022-10-21T19:40:23.681Z,100011.97
2022-10-21T19:43:10.705Z,100012.97
2022-10-21T19:46:02.505Z,100004.91
2022-10-21T19:48:49.435Z,100015.12
2022-10-21T19:51:38.095Z,100013.59
2022-10-21T19:54:24.766Z,100011.91
2022-10-21T19:57:11.556Z,100014.59
2022-10-21T19:59:58.369Z,100014.59
2022-10-21T20:02:45.123Z,100017.44
2022-10-21T20:05:34.435Z,100020.13
2022-10-21T20:08:22.615Z,100021.66
2022-10-21T20:11:13.049Z,100023.34
2022-10-21T20:14:00.711Z,100021.34
2022-10-21T20:16:49.838Z,100025.88
2022-10-21T20:19:36.318Z,100031.56
2022-10-21T20:22:23.552Z,100037.41
2022-10-21T20:25:12.396Z,100038.59
2022-10-21T20:27:59.819Z,100043.25
2022-10-21T20:30:46.519Z,100054.16
2022-10-21T20:33:36.277Z,100049.63
2022-10-21T20:36:24.747Z,100045.94
2022-10-21T20:39:13.397Z,100040.87
2022-10-21T20:42:01.619Z,100043.03
2022-10-21T20:44:48.839Z,100046.56
2022-10-21T20:47:35.727Z,100054.78
2022-10-21T20:50:23.145Z,100043.34
2022-10-21T20:53:09.759Z,100040.59
2022-10-21T20:55:57.284Z,100039.75
2022-10-21T20:58:45.829Z,100030.31
2022-10-21T21:01:35.252Z,100029.78
2022-10-21T21:04:23.634Z,100023.00
2022-10-21T21:07:12.809Z,100036.91
2022-10-21T21:10:02.906Z,100039.19
2022-10-21T21:12:50.284Z,100036.84
2022-10-21T21:15:38.322Z,100031.62
2022-10-21T21:18:25.666Z,100039.84
2022-10-21T21:21:14.479Z,100046.50
2022-10-21T21:24:03.027Z,100045.97
2022-10-21T21:26:49.955Z,100053.19
2022-10-21T21:29:36.934Z,100055.34
2022-10-21T21:32:25.275Z,100045.59
2022-10-21T21:35:12.700Z,100044.88
2022-10-21T21:37:59.591Z,100054.94
2022-10-21T21:40:47.026Z,100038.13
2022-10-21T21:43:34.558Z,100049.88
2022-10-21T21:46:23.837Z,100059.16
2022-10-21T21:49:11.818Z,100067.53
2022-10-21T21:51:59.148Z,100065.84
2022-10-21T21:54:46.054Z,100068.38
2022-10-21T21:57:34.421Z,100067.53
2022-10-21T22:00:21.148Z,100069.78
2022-10-21T22:03:08.191Z,100066.66
2022-10-21T22:05:56.232Z,100059.97
2022-10-21T22:08:43.480Z,100054.34
2022-10-21T22:11:33.227Z,100045.97
2022-10-21T22:14:20.439Z,100037.91
2022-10-21T22:17:07.447Z,100025.31
2022-10-21T22:19:54.760Z,100028.16
2022-10-21T22:22:42.894Z,100031.84
2022-10-21T22:25:30.314Z,100023.28
2022-10-21T22:28:17.243Z,100018.88
2022-10-21T22:31:06.722Z,100021.72
2022-10-21T22:33:53.695Z,100025.41
2022-10-21T22:36:41.015Z,100028.06
2022-10-21T22:39:29.250Z,100036.97
2022-10-21T22:42:16.576Z,100033.75
2022-10-21T22:45:03.476Z,100032.06
2022-10-21T22:47:50.876Z,100032.75
2022-10-21T22:50:37.679Z,100024.25
2022-10-21T22:53:24.793Z,100023.63
2022-10-21T22:56:13.243Z,100019.50
2022-10-21T22:59:00.669Z,100004.75
2022-10-21T23:01:47.557Z,100000.06
2022-10-21T23:04:34.574Z,99993.69
2022-10-21T23:07:21.677Z,99991.84
2022-10-21T23:10:09.862Z,99990.34
2022-10-21T23:12:58.152Z,99999.56
2022-10-21T23:15:46.040Z,100010.75
2022-10-21T23:18:33.090Z,100010.06
2022-10-21T23:21:20.098Z,100003.16
2022-10-21T23:24:07.835Z,100009.38
2022-10-21T23:26:59.093Z,100021.28
2022-10-21T23:29:49.637Z,100025.78
2022-10-21T23:32:37.184Z,100030.75
2022-10-21T23:35:24.761Z,100031.06
2022-10-21T23:38:12.074Z,100010.59
2022-10-21T23:40:58.910Z,99994.50
2022-10-21T23:43:46.090Z,100006.34
2022-10-21T23:46:34.663Z,100020.75
2022-10-21T23:49:22.073Z,100026.00
2022-10-21T23:52:09.163Z,100025.88
2022-10-21T23:54:55.972Z,100026.56
2022-10-21T23:57:43.008Z,100040.66
